sensor_id;sensor_type;location;lat;lon;timestamp;P1;durP1;ratioP1;P2;durP2;ratioP2
18048;SDS011;9149;47.002;8.604;2023-07-22T00:00:43;3.83;;;2.22;;
18048;SDS011;9149;47.002;8.604;2023-07-22T00:03:12;7.03;;;2.47;;
18048;SDS011;9149;47.002;8.604;2023-07-22T00:05:40;4.63;;;2.35;;
18048;SDS011;9149;47.002;8.604;2023-07-22T00:08:08;3.35;;;2.20;;
18048;SDS011;9149;47.002;8.604;2023-07-22T00:10:36;3.90;;;2.45;;
18048;SDS011;9149;47.002;8.604;2023-07-22T00:13:07;4.22;;;2.40;;
18048;SDS011;9149;47.002;8.604;2023-07-22T00:15:35;4.90;;;2.38;;
18048;SDS011;9149;47.002;8.604;2023-07-22T00:18:02;4.97;;;2.70;;
18048;SDS011;9149;47.002;8.604;2023-07-22T00:20:31;11.60;;;2.35;;
18048;SDS011;9149;47.002;8.604;2023-07-22T00:22:59;4.95;;;1.98;;
18048;SDS011;9149;47.002;8.604;2023-07-22T00:25:27;4.07;;;2.42;;
18048;SDS011;9149;47.002;8.604;2023-07-22T00:27:54;4.82;;;2.50;;
18048;SDS011;9149;47.002;8.604;2023-07-22T00:30:23;5.38;;;2.80;;
18048;SDS011;9149;47.002;8.604;2023-07-22T00:32:52;6.97;;;2.63;;
18048;SDS011;9149;47.002;8.604;2023-07-22T00:35:20;4.88;;;2.30;;
18048;SDS011;9149;47.002;8.604;2023-07-22T00:37:50;5.63;;;2.45;;
18048;SDS011;9149;47.002;8.604;2023-07-22T00:40:17;4.25;;;2.47;;
18048;SDS011;9149;47.002;8.604;2023-07-22T00:42:45;5.05;;;2.40;;
18048;SDS011;9149;47.002;8.604;2023-07-22T00:45:13;3.60;;;2.22;;
18048;SDS011;9149;47.002;8.604;2023-07-22T00:47:40;3.35;;;2.28;;
18048;SDS011;9149;47.002;8.604;2023-07-22T00:50:08;3.22;;;2.15;;
18048;SDS011;9149;47.002;8.604;2023-07-22T00:52:36;7.15;;;2.38;;
18048;SDS011;9149;47.002;8.604;2023-07-22T00:55:06;7.43;;;2.83;;
18048;SDS011;9149;47.002;8.604;2023-07-22T00:57:34;5.18;;;2.20;;
18048;SDS011;9149;47.002;8.604;2023-07-22T01:00:02;6.00;;;2.33;;
18048;SDS011;9149;47.002;8.604;2023-07-22T01:02:32;3.45;;;2.13;;
18048;SDS011;9149;47.002;8.604;2023-07-22T01:05:01;5.15;;;2.42;;
18048;SDS011;9149;47.002;8.604;2023-07-22T01:07:31;7.20;;;2.40;;
18048;SDS011;9149;47.002;8.604;2023-07-22T01:09:58;4.63;;;2.20;;
18048;SDS011;9149;47.002;8.604;2023-07-22T01:12:28;4.25;;;2.35;;
18048;SDS011;9149;47.002;8.604;2023-07-22T01:14:56;3.88;;;2.00;;
18048;SDS011;9149;47.002;8.604;2023-07-22T01:17:24;5.32;;;2.70;;
18048;SDS011;9149;47.002;8.604;2023-07-22T01:19:55;4.35;;;2.20;;
18048;SDS011;9149;47.002;8.604;2023-07-22T01:22:23;4.40;;;2.47;;
18048;SDS011;9149;47.002;8.604;2023-07-22T01:24:53;5.03;;;2.63;;
18048;SDS011;9149;47.002;8.604;2023-07-22T01:27:22;6.88;;;2.30;;
18048;SDS011;9149;47.002;8.604;2023-07-22T01:29:50;5.35;;;2.50;;
18048;SDS011;9149;47.002;8.604;2023-07-22T01:32:17;5.15;;;2.55;;
18048;SDS011;9149;47.002;8.604;2023-07-22T01:34:46;2.92;;;2.05;;
18048;SDS011;9149;47.002;8.604;2023-07-22T01:37:14;4.07;;;2.20;;
18048;SDS011;9149;47.002;8.604;2023-07-22T01:39:42;4.50;;;2.50;;
18048;SDS011;9149;47.002;8.604;2023-07-22T01:42:11;4.47;;;2.40;;
18048;SDS011;9149;47.002;8.604;2023-07-22T01:44:39;4.43;;;2.53;;
18048;SDS011;9149;47.002;8.604;2023-07-22T01:47:07;5.20;;;2.33;;
18048;SDS011;9149;47.002;8.604;2023-07-22T01:49:35;3.35;;;2.15;;
18048;SDS011;9149;47.002;8.604;2023-07-22T01:52:02;4.55;;;2.17;;
18048;SDS011;9149;47.002;8.604;2023-07-22T01:54:30;3.30;;;2.22;;
18048;SDS011;9149;47.002;8.604;2023-07-22T01:56:58;7.28;;;2.60;;
18048;SDS011;9149;47.002;8.604;2023-07-22T01:59:27;3.95;;;2.28;;
18048;SDS011;9149;47.002;8.604;2023-07-22T02:01:55;3.17;;;2.17;;
18048;SDS011;9149;47.002;8.604;2023-07-22T02:04:22;3.05;;;1.98;;
18048;SDS011;9149;47.002;8.604;2023-07-22T02:06:50;5.72;;;2.50;;
18048;SDS011;9149;47.002;8.604;2023-07-22T02:09:18;5.68;;;2.50;;
18048;SDS011;9149;47.002;8.604;2023-07-22T02:11:45;4.45;;;2.58;;
18048;SDS011;9149;47.002;8.604;2023-07-22T02:14:13;4.45;;;2.45;;
18048;SDS011;9149;47.002;8.604;2023-07-22T02:16:42;4.88;;;2.30;;
18048;SDS011;9149;47.002;8.604;2023-07-22T02:19:10;6.30;;;2.70;;
18048;SDS011;9149;47.002;8.604;2023-07-22T02:21:40;3.30;;;2.10;;
18048;SDS011;9149;47.002;8.604;2023-07-22T02:24:09;4.65;;;2.53;;
18048;SDS011;9149;47.002;8.604;2023-07-22T02:26:37;4.75;;;2.28;;
18048;SDS011;9149;47.002;8.604;2023-07-22T02:31:52;4.25;;;2.50;;
18048;SDS011;9149;47.002;8.604;2023-07-22T02:34:20;3.38;;;2.08;;
18048;SDS011;9149;47.002;8.604;2023-07-22T02:36:48;3.17;;;2.35;;
18048;SDS011;9149;47.002;8.604;2023-07-22T02:39:16;4.93;;;2.63;;
18048;SDS011;9149;47.002;8.604;2023-07-22T02:41:43;7.75;;;2.67;;
18048;SDS011;9149;47.002;8.604;2023-07-22T02:44:11;4.20;;;2.55;;
18048;SDS011;9149;47.002;8.604;2023-07-22T02:46:39;4.55;;;2.60;;
18048;SDS011;9149;47.002;8.604;2023-07-22T02:49:09;2.65;;;2.03;;
18048;SDS011;9149;47.002;8.604;2023-07-22T02:51:36;5.30;;;2.40;;
18048;SDS011;9149;47.002;8.604;2023-07-22T02:54:04;4.50;;;2.50;;
18048;SDS011;9149;47.002;8.604;2023-07-22T02:56:32;6.45;;;2.85;;
18048;SDS011;9149;47.002;8.604;2023-07-22T02:59:00;5.25;;;2.55;;
18048;SDS011;9149;47.002;8.604;2023-07-22T03:01:27;4.28;;;2.10;;
18048;SDS011;9149;47.002;8.604;2023-07-22T03:03:56;6.15;;;2.35;;
18048;SDS011;9149;47.002;8.604;2023-07-22T03:06:25;3.20;;;2.30;;
18048;SDS011;9149;47.002;8.604;2023-07-22T03:08:53;4.80;;;2.30;;
18048;SDS011;9149;47.002;8.604;2023-07-22T03:11:21;3.65;;;2.40;;
18048;SDS011;9149;47.002;8.604;2023-07-22T03:13:51;5.57;;;2.05;;
18048;SDS011;9149;47.002;8.604;2023-07-22T03:16:20;3.58;;;1.85;;
18048;SDS011;9149;47.002;8.604;2023-07-22T03:18:48;3.53;;;2.20;;
18048;SDS011;9149;47.002;8.604;2023-07-22T03:21:15;8.60;;;2.58;;
18048;SDS011;9149;47.002;8.604;2023-07-22T03:23:44;4.07;;;2.03;;
18048;SDS011;9149;47.002;8.604;2023-07-22T03:26:12;3.58;;;2.22;;
18048;SDS011;9149;47.002;8.604;2023-07-22T03:28:39;3.05;;;1.92;;
18048;SDS011;9149;47.002;8.604;2023-07-22T03:31:08;3.03;;;2.13;;
18048;SDS011;9149;47.002;8.604;2023-07-22T03:33:36;3.28;;;2.20;;
18048;SDS011;9149;47.002;8.604;2023-07-22T03:36:03;4.47;;;2.60;;
18048;SDS011;9149;47.002;8.604;2023-07-22T03:38:32;3.28;;;2.10;;
18048;SDS011;9149;47.002;8.604;2023-07-22T03:41:00;6.07;;;2.03;;
18048;SDS011;9149;47.002;8.604;2023-07-22T03:43:30;4.53;;;2.45;;
18048;SDS011;9149;47.002;8.604;2023-07-22T03:45:57;5.35;;;2.25;;
18048;SDS011;9149;47.002;8.604;2023-07-22T03:48:25;3.72;;;2.40;;
18048;SDS011;9149;47.002;8.604;2023-07-22T03:50:53;7.38;;;2.60;;
18048;SDS011;9149;47.002;8.604;2023-07-22T03:53:38;4.18;;;2.35;;
18048;SDS011;9149;47.002;8.604;2023-07-22T03:56:06;3.78;;;2.40;;
18048;SDS011;9149;47.002;8.604;2023-07-22T03:58:34;3.80;;;2.20;;
18048;SDS011;9149;47.002;8.604;2023-07-22T04:01:02;6.47;;;1.90;;
18048;SDS011;9149;47.002;8.604;2023-07-22T04:06:16;4.47;;;2.13;;
18048;SDS011;9149;47.002;8.604;2023-07-22T04:08:44;7.38;;;2.78;;
18048;SDS011;9149;47.002;8.604;2023-07-22T04:11:13;6.53;;;2.65;;
18048;SDS011;9149;47.002;8.604;2023-07-22T04:13:41;10.70;;;2.42;;
18048;SDS011;9149;47.002;8.604;2023-07-22T04:16:09;4.50;;;2.22;;
18048;SDS011;9149;47.002;8.604;2023-07-22T04:18:36;4.70;;;2.10;;
18048;SDS011;9149;47.002;8.604;2023-07-22T04:21:04;3.30;;;2.20;;
18048;SDS011;9149;47.002;8.604;2023-07-22T04:23:32;5.90;;;2.00;;
18048;SDS011;9149;47.002;8.604;2023-07-22T04:26:01;3.63;;;2.20;;
18048;SDS011;9149;47.002;8.604;2023-07-22T04:28:32;3.38;;;2.30;;
18048;SDS011;9149;47.002;8.604;2023-07-22T04:31:00;5.10;;;2.33;;
18048;SDS011;9149;47.002;8.604;2023-07-22T04:33:28;6.15;;;2.25;;
18048;SDS011;9149;47.002;8.604;2023-07-22T04:35:57;3.63;;;2.15;;
18048;SDS011;9149;47.002;8.604;2023-07-22T04:38:25;4.85;;;2.58;;
18048;SDS011;9149;47.002;8.604;2023-07-22T04:40:53;6.35;;;2.30;;
18048;SDS011;9149;47.002;8.604;2023-07-22T04:43:21;4.47;;;2.30;;
18048;SDS011;9149;47.002;8.604;2023-07-22T04:45:50;10.10;;;2.20;;
18048;SDS011;9149;47.002;8.604;2023-07-22T04:48:20;5.75;;;2.20;;
18048;SDS011;9149;47.002;8.604;2023-07-22T04:50:48;6.47;;;2.10;;
18048;SDS011;9149;47.002;8.604;2023-07-22T04:53:16;3.92;;;2.20;;
18048;SDS011;9149;47.002;8.604;2023-07-22T04:55:44;2.90;;;2.13;;
18048;SDS011;9149;47.002;8.604;2023-07-22T04:58:11;4.35;;;2.53;;
18048;SDS011;9149;47.002;8.604;2023-07-22T05:00:39;6.15;;;2.35;;
18048;SDS011;9149;47.002;8.604;2023-07-22T05:03:10;5.05;;;2.35;;
18048;SDS011;9149;47.002;8.604;2023-07-22T05:05:38;3.70;;;2.38;;
18048;SDS011;9149;47.002;8.604;2023-07-22T05:08:05;3.45;;;2.13;;
18048;SDS011;9149;47.002;8.604;2023-07-22T05:10:34;3.67;;;2.38;;
18048;SDS011;9149;47.002;8.604;2023-07-22T05:13:01;3.25;;;1.88;;
18048;SDS011;9149;47.002;8.604;2023-07-22T05:15:29;4.28;;;2.47;;
18048;SDS011;9149;47.002;8.604;2023-07-22T05:17:57;3.75;;;2.20;;
18048;SDS011;9149;47.002;8.604;2023-07-22T05:20:26;3.60;;;2.25;;
18048;SDS011;9149;47.002;8.604;2023-07-22T05:22:53;6.13;;;2.25;;
18048;SDS011;9149;47.002;8.604;2023-07-22T05:25:21;4.75;;;2.42;;
18048;SDS011;9149;47.002;8.604;2023-07-22T05:27:49;5.57;;;2.55;;
18048;SDS011;9149;47.002;8.604;2023-07-22T05:30:16;3.28;;;2.05;;
18048;SDS011;9149;47.002;8.604;2023-07-22T05:33:00;5.65;;;2.45;;
18048;SDS011;9149;47.002;8.604;2023-07-22T05:35:29;3.55;;;2.28;;
18048;SDS011;9149;47.002;8.604;2023-07-22T05:37:57;4.78;;;2.35;;
18048;SDS011;9149;47.002;8.604;2023-07-22T05:40:25;10.85;;;2.20;;
18048;SDS011;9149;47.002;8.604;2023-07-22T05:42:52;4.30;;;2.10;;
18048;SDS011;9149;47.002;8.604;2023-07-22T05:45:20;4.55;;;2.30;;
18048;SDS011;9149;47.002;8.604;2023-07-22T05:47:48;4.78;;;2.13;;
18048;SDS011;9149;47.002;8.604;2023-07-22T05:50:15;6.90;;;2.40;;
18048;SDS011;9149;47.002;8.604;2023-07-22T05:52:44;4.78;;;2.13;;
18048;SDS011;9149;47.002;8.604;2023-07-22T05:55:12;4.15;;;2.08;;
18048;SDS011;9149;47.002;8.604;2023-07-22T05:57:40;4.05;;;1.90;;
18048;SDS011;9149;47.002;8.604;2023-07-22T06:00:08;2.85;;;1.95;;
18048;SDS011;9149;47.002;8.604;2023-07-22T06:02:39;3.58;;;2.20;;
18048;SDS011;9149;47.002;8.604;2023-07-22T06:05:07;5.32;;;2.33;;
18048;SDS011;9149;47.002;8.604;2023-07-22T06:07:35;2.70;;;1.80;;
18048;SDS011;9149;47.002;8.604;2023-07-22T06:10:05;3.72;;;2.00;;
18048;SDS011;9149;47.002;8.604;2023-07-22T06:12:32;3.63;;;2.25;;
18048;SDS011;9149;47.002;8.604;2023-07-22T06:15:00;3.50;;;1.92;;
18048;SDS011;9149;47.002;8.604;2023-07-22T06:17:29;4.03;;;2.35;;
18048;SDS011;9149;47.002;8.604;2023-07-22T06:19:57;3.83;;;2.03;;
18048;SDS011;9149;47.002;8.604;2023-07-22T06:22:25;2.17;;;1.80;;
18048;SDS011;9149;47.002;8.604;2023-07-22T06:24:52;4.82;;;2.22;;
18048;SDS011;9149;47.002;8.604;2023-07-22T06:27:22;3.92;;;1.83;;
18048;SDS011;9149;47.002;8.604;2023-07-22T06:29:49;3.78;;;2.00;;
18048;SDS011;9149;47.002;8.604;2023-07-22T06:32:17;6.72;;;2.40;;
18048;SDS011;9149;47.002;8.604;2023-07-22T06:34:45;4.40;;;2.13;;
18048;SDS011;9149;47.002;8.604;2023-07-22T06:37:12;4.35;;;2.13;;
18048;SDS011;9149;47.002;8.604;2023-07-22T06:39:40;9.07;;;1.98;;
18048;SDS011;9149;47.002;8.604;2023-07-22T06:42:08;5.60;;;1.92;;
18048;SDS011;9149;47.002;8.604;2023-07-22T06:44:36;4.57;;;1.88;;
18048;SDS011;9149;47.002;8.604;2023-07-22T06:47:04;6.53;;;1.75;;
18048;SDS011;9149;47.002;8.604;2023-07-22T06:49:32;2.60;;;1.67;;
18048;SDS011;9149;47.002;8.604;2023-07-22T06:52:00;3.00;;;1.73;;
18048;SDS011;9149;47.002;8.604;2023-07-22T06:54:28;3.45;;;2.22;;
18048;SDS011;9149;47.002;8.604;2023-07-22T06:56:56;7.57;;;2.90;;
18048;SDS011;9149;47.002;8.604;2023-07-22T06:59:23;6.32;;;2.58;;
18048;SDS011;9149;47.002;8.604;2023-07-22T07:01:53;2.70;;;1.60;;
18048;SDS011;9149;47.002;8.604;2023-07-22T07:04:21;3.10;;;1.80;;
18048;SDS011;9149;47.002;8.604;2023-07-22T07:07:06;3.28;;;1.70;;
18048;SDS011;9149;47.002;8.604;2023-07-22T07:09:34;4.18;;;1.60;;
18048;SDS011;9149;47.002;8.604;2023-07-22T07:12:02;3.25;;;1.83;;
18048;SDS011;9149;47.002;8.604;2023-07-22T07:14:30;4.53;;;1.80;;
18048;SDS011;9149;47.002;8.604;2023-07-22T07:16:59;3.67;;;1.90;;
18048;SDS011;9149;47.002;8.604;2023-07-22T07:19:26;2.92;;;1.58;;
18048;SDS011;9149;47.002;8.604;2023-07-22T07:21:54;3.03;;;1.75;;
18048;SDS011;9149;47.002;8.604;2023-07-22T07:24:22;4.03;;;1.42;;
18048;SDS011;9149;47.002;8.604;2023-07-22T07:26:49;3.15;;;2.00;;
18048;SDS011;9149;47.002;8.604;2023-07-22T07:29:17;4.28;;;1.80;;
18048;SDS011;9149;47.002;8.604;2023-07-22T07:32:06;3.20;;;1.80;;
18048;SDS011;9149;47.002;8.604;2023-07-22T07:34:34;2.80;;;1.60;;
18048;SDS011;9149;47.002;8.604;2023-07-22T07:37:01;4.43;;;1.83;;
18048;SDS011;9149;47.002;8.604;2023-07-22T07:39:29;2.70;;;1.50;;
18048;SDS011;9149;47.002;8.604;2023-07-22T07:41:57;2.58;;;1.52;;
18048;SDS011;9149;47.002;8.604;2023-07-22T07:44:25;2.85;;;1.45;;
18048;SDS011;9149;47.002;8.604;2023-07-22T07:46:52;3.10;;;1.77;;
18048;SDS011;9149;47.002;8.604;2023-07-22T07:49:21;4.00;;;1.92;;
18048;SDS011;9149;47.002;8.604;2023-07-22T07:51:49;3.83;;;1.98;;
18048;SDS011;9149;47.002;8.604;2023-07-22T07:54:16;2.75;;;1.60;;
18048;SDS011;9149;47.002;8.604;2023-07-22T07:56:44;9.13;;;1.63;;
18048;SDS011;9149;47.002;8.604;2023-07-22T07:59:12;2.33;;;1.52;;
18048;SDS011;9149;47.002;8.604;2023-07-22T08:01:39;3.33;;;1.55;;
18048;SDS011;9149;47.002;8.604;2023-07-22T08:04:08;3.17;;;1.63;;
18048;SDS011;9149;47.002;8.604;2023-07-22T08:06:37;4.43;;;1.60;;
18048;SDS011;9149;47.002;8.604;2023-07-22T08:09:05;2.83;;;1.60;;
18048;SDS011;9149;47.002;8.604;2023-07-22T08:11:32;2.50;;;1.38;;
18048;SDS011;9149;47.002;8.604;2023-07-22T08:14:00;3.40;;;1.67;;
18048;SDS011;9149;47.002;8.604;2023-07-22T08:16:28;2.20;;;1.40;;
18048;SDS011;9149;47.002;8.604;2023-07-22T08:18:56;2.97;;;1.50;;
18048;SDS011;9149;47.002;8.604;2023-07-22T08:21:24;16.92;;;3.38;;
18048;SDS011;9149;47.002;8.604;2023-07-22T08:23:53;5.22;;;1.75;;
18048;SDS011;9149;47.002;8.604;2023-07-22T08:26:21;6.55;;;2.35;;
18048;SDS011;9149;47.002;8.604;2023-07-22T08:28:49;16.40;;;2.60;;
18048;SDS011;9149;47.002;8.604;2023-07-22T08:31:16;3.40;;;1.85;;
18048;SDS011;9149;47.002;8.604;2023-07-22T08:33:44;2.75;;;1.67;;
18048;SDS011;9149;47.002;8.604;2023-07-22T08:36:11;4.05;;;1.88;;
18048;SDS011;9149;47.002;8.604;2023-07-22T08:38:39;4.65;;;1.77;;
18048;SDS011;9149;47.002;8.604;2023-07-22T08:41:09;4.45;;;2.17;;
18048;SDS011;9149;47.002;8.604;2023-07-22T08:43:37;4.65;;;1.92;;
18048;SDS011;9149;47.002;8.604;2023-07-22T08:46:06;3.58;;;1.52;;
18048;SDS011;9149;47.002;8.604;2023-07-22T08:48:34;2.58;;;1.50;;
18048;SDS011;9149;47.002;8.604;2023-07-22T08:51:04;34.15;;;6.60;;
18048;SDS011;9149;47.002;8.604;2023-07-22T08:53:32;15.32;;;3.47;;
18048;SDS011;9149;47.002;8.604;2023-07-22T08:56:00;21.95;;;4.43;;
18048;SDS011;9149;47.002;8.604;2023-07-22T08:58:30;13.88;;;3.03;;
18048;SDS011;9149;47.002;8.604;2023-07-22T09:00:57;5.55;;;2.10;;
18048;SDS011;9149;47.002;8.604;2023-07-22T09:03:25;5.60;;;1.77;;
18048;SDS011;9149;47.002;8.604;2023-07-22T09:05:53;3.78;;;1.73;;
18048;SDS011;9149;47.002;8.604;2023-07-22T09:08:21;4.45;;;2.15;;
18048;SDS011;9149;47.002;8.604;2023-07-22T09:10:49;11.00;;;2.05;;
18048;SDS011;9149;47.002;8.604;2023-07-22T09:13:17;2.80;;;1.40;;
18048;SDS011;9149;47.002;8.604;2023-07-22T09:15:47;2.63;;;1.50;;
18048;SDS011;9149;47.002;8.604;2023-07-22T09:18:15;3.92;;;1.88;;
18048;SDS011;9149;47.002;8.604;2023-07-22T09:20:43;2.83;;;1.40;;
18048;SDS011;9149;47.002;8.604;2023-07-22T09:23:11;3.08;;;1.70;;
18048;SDS011;9149;47.002;8.604;2023-07-22T09:25:40;3.92;;;2.17;;
18048;SDS011;9149;47.002;8.604;2023-07-22T09:28:08;3.03;;;1.55;;
18048;SDS011;9149;47.002;8.604;2023-07-22T09:30:37;4.40;;;1.55;;
18048;SDS011;9149;47.002;8.604;2023-07-22T09:33:07;2.75;;;1.55;;
18048;SDS011;9149;47.002;8.604;2023-07-22T09:35:43;5.00;;;1.88;;
18048;SDS011;9149;47.002;8.604;2023-07-22T09:38:12;3.25;;;1.65;;
18048;SDS011;9149;47.002;8.604;2023-07-22T09:40:41;3.22;;;1.70;;
18048;SDS011;9149;47.002;8.604;2023-07-22T09:43:09;3.08;;;1.50;;
18048;SDS011;9149;47.002;8.604;2023-07-22T09:45:38;4.38;;;1.60;;
18048;SDS011;9149;47.002;8.604;2023-07-22T09:48:07;3.13;;;1.40;;
18048;SDS011;9149;47.002;8.604;2023-07-22T09:50:37;2.38;;;1.50;;
18048;SDS011;9149;47.002;8.604;2023-07-22T09:53:04;3.45;;;1.42;;
18048;SDS011;9149;47.002;8.604;2023-07-22T09:55:33;5.70;;;1.63;;
18048;SDS011;9149;47.002;8.604;2023-07-22T09:58:01;6.72;;;1.60;;
18048;SDS011;9149;47.002;8.604;2023-07-22T10:00:29;3.67;;;1.70;;
18048;SDS011;9149;47.002;8.604;2023-07-22T10:02:57;3.55;;;1.70;;
18048;SDS011;9149;47.002;8.604;2023-07-22T10:05:27;3.78;;;1.45;;
18048;SDS011;9149;47.002;8.604;2023-07-22T10:07:56;2.67;;;1.40;;
18048;SDS011;9149;47.002;8.604;2023-07-22T10:10:25;3.05;;;1.30;;
18048;SDS011;9149;47.002;8.604;2023-07-22T10:12:53;3.10;;;1.90;;
18048;SDS011;9149;47.002;8.604;2023-07-22T10:15:21;2.92;;;1.60;;
18048;SDS011;9149;47.002;8.604;2023-07-22T10:17:49;2.70;;;1.40;;
18048;SDS011;9149;47.002;8.604;2023-07-22T10:20:18;3.40;;;1.80;;
18048;SDS011;9149;47.002;8.604;2023-07-22T10:22:48;3.05;;;1.48;;
18048;SDS011;9149;47.002;8.604;2023-07-22T10:25:17;1.77;;;1.23;;
18048;SDS011;9149;47.002;8.604;2023-07-22T10:27:46;5.63;;;1.40;;
18048;SDS011;9149;47.002;8.604;2023-07-22T10:30:14;2.25;;;1.23;;
18048;SDS011;9149;47.002;8.604;2023-07-22T10:32:42;2.10;;;1.20;;
18048;SDS011;9149;47.002;8.604;2023-07-22T10:35:16;3.78;;;1.13;;
18048;SDS011;9149;47.002;8.604;2023-07-22T10:37:44;2.20;;;1.13;;
18048;SDS011;9149;47.002;8.604;2023-07-22T10:40:17;1.88;;;1.13;;
18048;SDS011;9149;47.002;8.604;2023-07-22T10:42:51;3.35;;;1.50;;
18048;SDS011;9149;47.002;8.604;2023-07-22T10:45:23;1.40;;;1.00;;
18048;SDS011;9149;47.002;8.604;2023-07-22T10:47:59;4.53;;;1.35;;
18048;SDS011;9149;47.002;8.604;2023-07-22T10:50:37;1.67;;;1.05;;
18048;SDS011;9149;47.002;8.604;2023-07-22T10:53:09;2.72;;;1.38;;
18048;SDS011;9149;47.002;8.604;2023-07-22T10:58:21;3.05;;;1.60;;
18048;SDS011;9149;47.002;8.604;2023-07-22T11:00:51;2.92;;;1.40;;
18048;SDS011;9149;47.002;8.604;2023-07-22T11:03:18;2.03;;;1.20;;
18048;SDS011;9149;47.002;8.604;2023-07-22T11:05:48;2.22;;;1.40;;
18048;SDS011;9149;47.002;8.604;2023-07-22T11:08:16;3.30;;;1.30;;
18048;SDS011;9149;47.002;8.604;2023-07-22T11:10:51;7.82;;;1.55;;
18048;SDS011;9149;47.002;8.604;2023-07-22T11:13:27;2.60;;;1.50;;
18048;SDS011;9149;47.002;8.604;2023-07-22T11:15:57;2.83;;;1.20;;
18048;SDS011;9149;47.002;8.604;2023-07-22T11:18:35;4.50;;;1.60;;
18048;SDS011;9149;47.002;8.604;2023-07-22T11:21:06;2.35;;;1.35;;
18048;SDS011;9149;47.002;8.604;2023-07-22T11:23:34;2.85;;;1.60;;
18048;SDS011;9149;47.002;8.604;2023-07-22T11:26:02;4.22;;;1.60;;
18048;SDS011;9149;47.002;8.604;2023-07-22T11:28:32;3.92;;;1.80;;
18048;SDS011;9149;47.002;8.604;2023-07-22T11:31:00;3.70;;;1.77;;
18048;SDS011;9149;47.002;8.604;2023-07-22T11:33:37;3.00;;;1.63;;
18048;SDS011;9149;47.002;8.604;2023-07-22T11:36:05;3.30;;;1.50;;
18048;SDS011;9149;47.002;8.604;2023-07-22T11:38:33;2.17;;;1.42;;
18048;SDS011;9149;47.002;8.604;2023-07-22T11:41:01;3.20;;;1.88;;
18048;SDS011;9149;47.002;8.604;2023-07-22T11:43:29;2.47;;;1.40;;
18048;SDS011;9149;47.002;8.604;2023-07-22T11:45:58;6.63;;;1.90;;
18048;SDS011;9149;47.002;8.604;2023-07-22T11:48:26;4.72;;;1.58;;
18048;SDS011;9149;47.002;8.604;2023-07-22T11:50:57;4.88;;;1.67;;
18048;SDS011;9149;47.002;8.604;2023-07-22T11:53:26;2.42;;;1.27;;
18048;SDS011;9149;47.002;8.604;2023-07-22T11:55:54;2.03;;;1.33;;
18048;SDS011;9149;47.002;8.604;2023-07-22T11:58:23;2.92;;;1.50;;
18048;SDS011;9149;47.002;8.604;2023-07-22T12:01:02;4.00;;;1.58;;
18048;SDS011;9149;47.002;8.604;2023-07-22T12:03:32;2.05;;;1.13;;
18048;SDS011;9149;47.002;8.604;2023-07-22T12:06:01;2.95;;;1.40;;
18048;SDS011;9149;47.002;8.604;2023-07-22T12:08:29;4.38;;;1.38;;
18048;SDS011;9149;47.002;8.604;2023-07-22T12:10:57;2.80;;;1.58;;
18048;SDS011;9149;47.002;8.604;2023-07-22T12:13:24;2.72;;;1.58;;
18048;SDS011;9149;47.002;8.604;2023-07-22T12:16:00;7.50;;;1.75;;
18048;SDS011;9149;47.002;8.604;2023-07-22T12:18:29;2.65;;;1.50;;
18048;SDS011;9149;47.002;8.604;2023-07-22T12:21:08;2.35;;;1.38;;
18048;SDS011;9149;47.002;8.604;2023-07-22T12:23:36;2.40;;;1.35;;
18048;SDS011;9149;47.002;8.604;2023-07-22T12:26:05;6.53;;;1.48;;
18048;SDS011;9149;47.002;8.604;2023-07-22T12:28:32;3.78;;;1.52;;
18048;SDS011;9149;47.002;8.604;2023-07-22T12:31:00;3.03;;;1.60;;
18048;SDS011;9149;47.002;8.604;2023-07-22T12:33:29;3.13;;;1.58;;
18048;SDS011;9149;47.002;8.604;2023-07-22T12:35:58;3.95;;;1.73;;
18048;SDS011;9149;47.002;8.604;2023-07-22T12:38:25;4.75;;;1.58;;
18048;SDS011;9149;47.002;8.604;2023-07-22T12:40:53;4.75;;;1.58;;
18048;SDS011;9149;47.002;8.604;2023-07-22T12:43:20;2.67;;;1.50;;
18048;SDS011;9149;47.002;8.604;2023-07-22T12:45:48;2.70;;;1.50;;
18048;SDS011;9149;47.002;8.604;2023-07-22T12:48:16;2.38;;;1.50;;
18048;SDS011;9149;47.002;8.604;2023-07-22T12:50:46;3.05;;;1.60;;
18048;SDS011;9149;47.002;8.604;2023-07-22T12:53:14;3.00;;;1.65;;
18048;SDS011;9149;47.002;8.604;2023-07-22T12:55:42;3.25;;;1.60;;
18048;SDS011;9149;47.002;8.604;2023-07-22T12:58:09;2.70;;;1.50;;
18048;SDS011;9149;47.002;8.604;2023-07-22T13:00:37;2.78;;;1.60;;
18048;SDS011;9149;47.002;8.604;2023-07-22T13:03:05;3.95;;;1.80;;
18048;SDS011;9149;47.002;8.604;2023-07-22T13:05:33;4.05;;;1.63;;
18048;SDS011;9149;47.002;8.604;2023-07-22T13:08:02;2.60;;;1.60;;
18048;SDS011;9149;47.002;8.604;2023-07-22T13:10:30;2.63;;;1.50;;
18048;SDS011;9149;47.002;8.604;2023-07-22T13:13:00;3.35;;;1.60;;
18048;SDS011;9149;47.002;8.604;2023-07-22T13:15:28;2.97;;;1.60;;
18048;SDS011;9149;47.002;8.604;2023-07-22T13:17:56;5.00;;;1.75;;
18048;SDS011;9149;47.002;8.604;2023-07-22T13:20:23;2.70;;;1.48;;
18048;SDS011;9149;47.002;8.604;2023-07-22T13:22:51;3.67;;;1.67;;
18048;SDS011;9149;47.002;8.604;2023-07-22T13:25:20;5.80;;;1.65;;
18048;SDS011;9149;47.002;8.604;2023-07-22T13:27:48;2.38;;;1.42;;
18048;SDS011;9149;47.002;8.604;2023-07-22T13:30:14;6.13;;;1.75;;
18048;SDS011;9149;47.002;8.604;2023-07-22T13:32:42;3.55;;;1.58;;
18048;SDS011;9149;47.002;8.604;2023-07-22T13:35:10;2.95;;;1.80;;
18048;SDS011;9149;47.002;8.604;2023-07-22T13:37:38;2.70;;;1.38;;
18048;SDS011;9149;47.002;8.604;2023-07-22T13:40:06;2.60;;;1.45;;
18048;SDS011;9149;47.002;8.604;2023-07-22T13:42:38;3.88;;;1.50;;
18048;SDS011;9149;47.002;8.604;2023-07-22T13:45:06;3.15;;;1.58;;
18048;SDS011;9149;47.002;8.604;2023-07-22T13:47:34;2.30;;;1.38;;
18048;SDS011;9149;47.002;8.604;2023-07-22T13:50:02;7.22;;;1.65;;
18048;SDS011;9149;47.002;8.604;2023-07-22T13:52:30;4.60;;;1.40;;
18048;SDS011;9149;47.002;8.604;2023-07-22T13:54:58;3.20;;;1.40;;
18048;SDS011;9149;47.002;8.604;2023-07-22T13:57:25;3.92;;;1.60;;
18048;SDS011;9149;47.002;8.604;2023-07-22T13:59:54;4.18;;;1.38;;
18048;SDS011;9149;47.002;8.604;2023-07-22T14:02:22;2.15;;;1.52;;
18048;SDS011;9149;47.002;8.604;2023-07-22T14:04:50;3.35;;;1.80;;
18048;SDS011;9149;47.002;8.604;2023-07-22T14:07:17;4.07;;;1.52;;
18048;SDS011;9149;47.002;8.604;2023-07-22T14:09:45;4.43;;;1.60;;
18048;SDS011;9149;47.002;8.604;2023-07-22T14:12:12;4.07;;;1.73;;
18048;SDS011;9149;47.002;8.604;2023-07-22T14:14:40;2.40;;;1.67;;
18048;SDS011;9149;47.002;8.604;2023-07-22T14:17:09;3.50;;;1.70;;
18048;SDS011;9149;47.002;8.604;2023-07-22T14:19:37;2.00;;;1.48;;
18048;SDS011;9149;47.002;8.604;2023-07-22T14:22:05;5.35;;;1.77;;
18048;SDS011;9149;47.002;8.604;2023-07-22T14:24:33;3.22;;;1.40;;
18048;SDS011;9149;47.002;8.604;2023-07-22T14:27:03;2.70;;;1.50;;
18048;SDS011;9149;47.002;8.604;2023-07-22T14:29:31;3.25;;;1.55;;
18048;SDS011;9149;47.002;8.604;2023-07-22T14:31:59;2.75;;;1.60;;
18048;SDS011;9149;47.002;8.604;2023-07-22T14:34:28;3.08;;;1.63;;
18048;SDS011;9149;47.002;8.604;2023-07-22T14:36:56;4.13;;;1.55;;
18048;SDS011;9149;47.002;8.604;2023-07-22T14:39:23;2.85;;;1.50;;
18048;SDS011;9149;47.002;8.604;2023-07-22T14:42:09;2.72;;;1.48;;
18048;SDS011;9149;47.002;8.604;2023-07-22T14:44:37;1.98;;;1.23;;
18048;SDS011;9149;47.002;8.604;2023-07-22T14:47:05;2.55;;;1.60;;
18048;SDS011;9149;47.002;8.604;2023-07-22T14:49:34;1.40;;;1.10;;
18048;SDS011;9149;47.002;8.604;2023-07-22T14:52:02;3.63;;;1.60;;
18048;SDS011;9149;47.002;8.604;2023-07-22T14:54:30;1.85;;;1.30;;
18048;SDS011;9149;47.002;8.604;2023-07-22T14:56:57;2.38;;;1.40;;
18048;SDS011;9149;47.002;8.604;2023-07-22T14:59:25;6.85;;;1.67;;
18048;SDS011;9149;47.002;8.604;2023-07-22T15:01:53;2.92;;;1.65;;
18048;SDS011;9149;47.002;8.604;2023-07-22T15:04:21;2.55;;;1.38;;
18048;SDS011;9149;47.002;8.604;2023-07-22T15:06:50;2.20;;;1.40;;
18048;SDS011;9149;47.002;8.604;2023-07-22T15:09:18;2.85;;;1.58;;
18048;SDS011;9149;47.002;8.604;2023-07-22T15:11:47;3.47;;;1.38;;
18048;SDS011;9149;47.002;8.604;2023-07-22T15:14:14;2.35;;;1.42;;
18048;SDS011;9149;47.002;8.604;2023-07-22T15:16:42;3.63;;;1.63;;